createdAt,value
2022-09-06T00:02:08.314Z,99936.81
2022-09-06T00:04:38.469Z,99946.53
2022-09-06T00:07:08.197Z,99943.00
2022-09-06T00:09:38.673Z,99931.56
2022-09-06T00:12:08.128Z,99936.88
2022-09-06T00:14:37.250Z,99922.75
2022-09-06T00:17:06.328Z,99920.13
2022-09-06T00:19:35.637Z,99919.25
2022-09-06T00:22:04.566Z,99921.88
2022-09-06T00:24:33.797Z,99917.47
2022-09-06T00:27:04.967Z,99913.97
2022-09-06T00:29:35.929Z,99905.16
2022-09-06T00:32:04.982Z,99906.06
2022-09-06T00:34:34.482Z,99904.28
2022-09-06T00:37:03.325Z,99899.06
2022-09-06T00:39:32.495Z,99910.53
2022-09-06T00:42:01.409Z,99898.19
2022-09-06T00:44:32.754Z,99900.81
2022-09-06T00:47:01.865Z,99899.94
2022-09-06T00:49:35.190Z,99903.44
2022-09-06T00:52:08.629Z,99897.31
2022-09-06T00:54:37.627Z,99909.66
2022-09-06T00:57:06.698Z,99895.56
2022-09-06T00:59:39.253Z,99907.91
2022-09-06T01:02:09.512Z,99902.63
2022-09-06T01:04:40.673Z,99904.44
2022-09-06T01:07:24.342Z,99901.81
2022-09-06T01:10:09.880Z,99903.56
2022-09-06T01:12:49.158Z,99916.81
2022-09-06T01:15:32.507Z,99953.00
2022-09-06T01:18:14.162Z,99994.50
2022-09-06T01:20:54.372Z,99981.38
2022-09-06T01:24:38.925Z,99990.25
2022-09-06T01:27:52.268Z,99989.44
2022-09-06T01:30:22.082Z,99983.25
2022-09-06T01:32:59.079Z,99992.94
2022-09-06T01:35:35.430Z,99985.03
2022-09-06T01:38:05.671Z,99987.66
2022-09-06T01:40:36.436Z,99986.81
2022-09-06T01:43:11.254Z,99985.03
2022-09-06T01:45:52.284Z,99988.56
2022-09-06T01:48:34.659Z,99985.91
2022-09-06T01:51:17.119Z,99991.22
2022-09-06T01:54:11.527Z,99983.28
2022-09-06T01:56:51.499Z,99981.53
2022-09-06T01:59:52.185Z,99981.53
2022-09-06T02:02:36.812Z,99979.78
2022-09-06T02:05:12.715Z,99983.31
2022-09-06T02:07:43.551Z,99987.75
2022-09-06T02:10:19.915Z,99993.88
2022-09-06T02:12:53.777Z,99993.03
2022-09-06T02:15:28.532Z,99992.16
2022-09-06T02:18:02.751Z,99990.41
2022-09-06T02:20:35.815Z,99986.00
2022-09-06T02:23:08.435Z,99979.81
2022-09-06T02:25:42.008Z,99990.41
2022-09-06T02:28:12.118Z,99993.06
2022-09-06T02:30:46.512Z,99991.28
2022-09-06T02:33:21.000Z,99991.28
2022-09-06T02:35:53.830Z,99993.06
2022-09-06T02:38:24.769Z,99985.13
2022-09-06T02:40:56.916Z,99986.00
2022-09-06T02:43:25.583Z,99993.94
2022-09-06T02:45:55.547Z,99995.72
2022-09-06T02:48:24.236Z,100001.88
2022-09-06T02:50:52.869Z,99993.06
2022-09-06T02:53:21.435Z,99985.13
2022-09-06T02:55:50.242Z,99983.41
2022-09-06T02:58:18.909Z,99977.22
2022-09-06T03:00:48.052Z,99977.22
2022-09-06T03:03:18.040Z,99980.75
2022-09-06T03:05:49.784Z,99978.13
2022-09-06T03:08:19.196Z,99976.34
2022-09-06T03:10:50.845Z,99972.81
2022-09-06T03:13:19.519Z,99971.09
2022-09-06T03:15:52.327Z,99971.09
2022-09-06T03:18:22.515Z,99971.94
2022-09-06T03:20:51.453Z,99967.56
2022-09-06T03:23:20.860Z,99962.28
2022-09-06T03:25:49.383Z,99957.00
2022-09-06T03:28:18.614Z,99976.34
2022-09-06T03:30:48.375Z,99962.28
2022-09-06T03:33:17.926Z,99960.53
2022-09-06T03:35:51.648Z,99963.16
2022-09-06T03:38:20.511Z,99960.53
2022-09-06T03:40:49.965Z,99961.41
2022-09-06T03:43:19.748Z,99964.94
2022-09-06T03:45:49.500Z,99954.34
2022-09-06T03:48:19.738Z,99957.03
2022-09-06T03:50:51.656Z,99957.03
2022-09-06T03:53:20.993Z,99950.88
2022-09-06T03:55:52.289Z,99949.13
2022-09-06T03:58:23.513Z,99948.28
2022-09-06T04:01:01.565Z,99946.50
2022-09-06T04:03:30.253Z,99943.00
2022-09-06T04:06:00.347Z,99936.81
2022-09-06T04:08:29.671Z,99946.50
2022-09-06T04:10:59.732Z,99955.31
2022-09-06T04:13:30.330Z,99957.09
2022-09-06T04:15:59.685Z,99966.81
2022-09-06T04:18:28.711Z,99969.47
2022-09-06T04:20:59.590Z,99959.78
2022-09-06T04:23:29.835Z,99947.47
2022-09-06T04:26:00.286Z,99949.25
2022-09-06T04:28:29.450Z,99943.94
2022-09-06T04:31:04.374Z,99948.41
2022-09-06T04:33:35.552Z,99951.94
2022-09-06T04:36:09.221Z,99951.09
2022-09-06T04:38:40.298Z,99938.78
2022-09-06T04:41:10.346Z,99943.19
2022-09-06T04:43:39.118Z,99943.19
2022-09-06T04:46:20.920Z,99960.81
2022-09-06T04:48:49.617Z,99959.06
2022-09-06T04:51:20.115Z,99949.41
2022-09-06T04:53:49.087Z,99960.84
2022-09-06T04:56:20.051Z,99953.81
2022-09-06T04:58:50.883Z,99967.91
2022-09-06T05:01:20.579Z,99960.84
2022-09-06T05:03:50.356Z,99962.63
2022-09-06T05:06:27.016Z,99964.41
2022-09-06T05:08:55.900Z,99973.22
2022-09-06T05:11:24.541Z,99974.09
2022-09-06T05:13:53.362Z,99972.34
2022-09-06T05:16:22.166Z,99967.94
2022-09-06T05:18:50.747Z,99974.09
2022-09-06T05:21:19.499Z,99973.22
2022-09-06T05:23:49.600Z,99969.69
2022-09-06T05:26:18.140Z,99968.81
2022-09-06T05:28:46.850Z,99967.94
2022-09-06T05:31:27.359Z,99974.09
2022-09-06T05:33:57.449Z,99972.34
2022-09-06T05:36:28.486Z,99973.25
2022-09-06T05:38:59.598Z,99976.75
2022-09-06T05:41:28.664Z,99979.41
2022-09-06T05:43:57.360Z,99975.00
2022-09-06T05:46:26.537Z,99984.66
2022-09-06T05:48:55.826Z,99978.53
2022-09-06T05:51:24.308Z,99983.78
2022-09-06T05:53:52.790Z,99987.31
2022-09-06T05:56:22.717Z,99983.78
2022-09-06T05:58:51.373Z,99977.63
2022-09-06T06:01:22.239Z,99979.38
2022-09-06T06:03:57.070Z,99977.63
2022-09-06T06:06:27.594Z,99978.50
2022-09-06T06:08:56.328Z,99968.84
2022-09-06T06:11:27.234Z,99977.63
2022-09-06T06:13:56.085Z,99964.44
2022-09-06T06:16:25.457Z,99961.78
2022-09-06T06:18:54.218Z,99965.31
2022-09-06T06:21:25.272Z,99960.91
2022-09-06T06:23:56.317Z,99958.28
2022-09-06T06:26:27.608Z,99965.31
2022-09-06T06:28:57.895Z,99967.97
2022-09-06T06:31:26.560Z,99962.69
2022-09-06T06:33:55.257Z,99960.03
2022-09-06T06:36:25.835Z,99956.50
2022-09-06T06:38:56.634Z,99961.78
2022-09-06T06:41:29.640Z,99960.03
2022-09-06T06:44:01.437Z,99957.38
2022-09-06T06:46:31.953Z,99954.75
2022-09-06T06:49:00.614Z,99955.63
2022-09-06T06:51:31.380Z,99955.63
2022-09-06T06:54:00.608Z,99948.59
2022-09-06T06:56:33.505Z,99952.09
2022-09-06T06:59:05.474Z,99946.81
2022-09-06T07:01:35.896Z,99949.47
2022-09-06T07:04:05.775Z,99945.94
2022-09-06T07:12:28.166Z,99940.63
2022-09-06T07:14:56.742Z,99946.78
2022-09-06T07:17:25.542Z,99929.16
2022-09-06T07:22:43.092Z,99925.63
2022-09-06T07:25:14.403Z,99932.66
2022-09-06T07:27:47.806Z,99929.13
2022-09-06T07:30:18.131Z,99927.38
2022-09-06T07:32:46.765Z,99928.22
2022-09-06T07:35:15.501Z,99937.03
2022-09-06T07:37:44.089Z,99929.97
2022-09-06T07:40:13.164Z,99937.91
2022-09-06T07:42:42.535Z,99928.22
2022-09-06T07:45:13.204Z,99931.72
2022-09-06T07:47:57.173Z,99931.69
2022-09-06T07:53:20.505Z,99922.00
2022-09-06T07:55:54.675Z,99931.66
2022-09-06T07:58:23.247Z,99924.56
2022-09-06T08:00:53.486Z,99927.19
2022-09-06T08:03:22.156Z,99915.72
2022-09-06T08:11:27.473Z,99918.25
2022-09-06T08:13:58.042Z,99930.56
2022-09-06T08:16:30.699Z,99923.44
2022-09-06T08:19:01.336Z,99934.84
2022-09-06T08:21:32.255Z,99926.03
2022-09-06T08:24:03.308Z,99933.03
2022-09-06T08:26:35.177Z,99926.81
2022-09-06T08:29:07.700Z,99925.88
2022-09-06T08:31:40.379Z,99926.75
2022-09-06T08:34:09.648Z,99932.81
2022-09-06T08:36:38.422Z,99926.59
2022-09-06T08:39:10.130Z,99930.03
2022-09-06T08:41:51.232Z,99934.41
2022-09-06T08:47:17.602Z,99937.00
2022-09-06T08:49:52.951Z,99931.66
2022-09-06T08:52:41.840Z,99928.94
2022-09-06T08:55:35.865Z,99944.75
2022-09-06T08:58:38.393Z,99941.19
2022-09-06T09:01:13.294Z,99928.75
2022-09-06T09:03:44.962Z,99919.91
2022-09-06T09:06:13.744Z,99922.47
2022-09-06T09:08:59.981Z,99925.94
2022-09-06T09:11:28.774Z,99926.75
2022-09-06T09:14:05.314Z,99916.97
2022-09-06T09:16:34.478Z,99922.22
2022-09-06T09:19:06.772Z,99913.31
2022-09-06T09:21:40.271Z,99913.25
2022-09-06T09:24:11.570Z,99919.34
2022-09-06T09:26:49.572Z,99908.72
2022-09-06T09:29:20.808Z,99913.97
2022-09-06T09:31:55.396Z,99905.03
2022-09-06T09:34:35.225Z,99901.47
2022-09-06T09:40:04.813Z,99904.84
2022-09-06T09:42:37.716Z,99894.19
2022-09-06T09:45:25.238Z,99896.81
2022-09-06T09:47:54.044Z,99894.13
2022-09-06T09:50:31.806Z,99896.59
2022-09-06T09:53:11.162Z,99878.00
2022-09-06T09:55:40.506Z,99883.22
2022-09-06T09:58:17.502Z,99882.22
2022-09-06T10:00:46.627Z,99890.13
2022-09-06T10:03:28.153Z,99884.81
2022-09-06T10:06:02.435Z,99883.03
2022-09-06T10:08:34.584Z,99879.41
2022-09-06T10:11:03.175Z,99875.78
2022-09-06T10:13:33.572Z,99866.81
2022-09-06T10:16:03.892Z,99874.69
2022-09-06T10:18:35.362Z,99878.16
2022-09-06T10:21:07.548Z,99864.84
2022-09-06T10:26:51.896Z,99878.00
2022-09-06T10:29:34.479Z,99867.31
2022-09-06T10:32:19.110Z,99876.03
2022-09-06T10:35:05.843Z,99868.84
2022-09-06T10:37:49.505Z,99863.41
2022-09-06T10:40:31.939Z,99858.00
2022-09-06T10:43:02.532Z,99872.94
2022-09-06T10:45:47.562Z,99874.66
2022-09-06T10:48:22.988Z,99866.59
2022-09-06T10:50:55.755Z,99858.59
2022-09-06T10:53:49.035Z,99854.03
2022-09-06T10:56:25.205Z,99861.00
2022-09-06T11:02:05.499Z,99851.00
2022-09-06T11:07:31.103Z,99856.88
2022-09-06T11:10:08.944Z,99853.22
2022-09-06T11:12:44.812Z,99850.47
2022-09-06T11:15:17.236Z,99844.19
2022-09-06T11:17:50.466Z,99852.03
2022-09-06T11:20:29.980Z,99840.41
2022-09-06T11:23:42.113Z,99835.00
2022-09-06T11:26:34.484Z,99840.16
2022-09-06T11:29:07.993Z,99850.66
2022-09-06T11:34:44.134Z,99853.28
2022-09-06T11:37:27.752Z,99852.28
2022-09-06T11:43:17.775Z,99844.06
2022-09-06T11:45:50.123Z,99846.59
2022-09-06T11:49:02.741Z,99846.59
2022-09-06T11:51:37.948Z,99842.97
2022-09-06T11:54:27.960Z,99842.91
2022-09-06T11:57:02.653Z,99840.13
2022-09-06T11:59:50.777Z,99834.63
2022-09-06T12:02:41.787Z,99842.47
2022-09-06T12:05:26.806Z,99835.25
2022-09-06T12:08:34.248Z,99824.56
2022-09-06T12:11:23.907Z,99829.72
2022-09-06T12:14:00.130Z,99827.81
2022-09-06T12:17:27.650Z,99819.75
2022-09-06T12:20:07.543Z,99822.19
2022-09-06T12:23:04.365Z,99824.75
2022-09-06T12:25:57.515Z,99823.78
2022-09-06T12:28:43.478Z,99820.13
2022-09-06T12:31:29.534Z,99816.44
2022-09-06T12:34:00.244Z,99822.47
2022-09-06T12:36:32.387Z,99815.22
2022-09-06T12:39:04.712Z,99810.69
2022-09-06T12:41:43.313Z,99807.97
2022-09-06T12:44:14.672Z,99803.44
2022-09-06T12:46:49.115Z,99809.47
2022-09-06T12:49:23.386Z,99798.72
2022-09-06T12:51:52.317Z,99805.72
2022-09-06T12:54:24.045Z,99804.78
2022-09-06T12:56:54.175Z,99802.00
2022-09-06T12:59:27.169Z,99795.69
2022-09-06T13:02:01.909Z,99797.34
2022-09-06T13:04:39.814Z,99789.25
2022-09-06T13:07:13.446Z,99790.84
2022-09-06T13:09:47.703Z,99797.84
2022-09-06T13:12:27.167Z,99795.06
2022-09-06T13:14:58.201Z,99790.47
2022-09-06T13:17:29.967Z,99798.44
2022-09-06T13:19:59.955Z,99787.69
2022-09-06T13:22:49.356Z,99792.97
2022-09-06T13:25:25.835Z,99791.09
2022-09-06T13:27:58.020Z,99805.38
2022-09-06T13:30:42.061Z,99795.66
2022-09-06T13:33:25.491Z,99781.41
2022-09-06T13:36:10.295Z,99782.28
2022-09-06T13:38:43.999Z,99770.63
2022-09-06T13:41:37.452Z,99774.19
2022-09-06T13:44:09.017Z,99777.72
2022-09-06T13:46:37.541Z,99778.59
2022-09-06T13:49:06.176Z,99768.66
2022-09-06T13:51:39.340Z,99779.13
2022-09-06T13:54:10.769Z,99769.19
2022-09-06T13:56:39.944Z,99770.84
2022-09-06T13:59:10.481Z,99777.72
2022-09-06T14:01:40.216Z,99778.59
2022-09-06T14:04:11.372Z,99780.28
2022-09-06T14:06:41.315Z,99774.94
2022-09-06T14:09:10.102Z,99774.75
2022-09-06T14:11:39.166Z,99777.31
2022-09-06T14:14:07.831Z,99773.56
2022-09-06T14:16:37.124Z,99775.19
2022-09-06T14:19:06.601Z,99779.53
2022-09-06T14:21:35.522Z,99778.50
2022-09-06T14:24:05.996Z,99767.78
2022-09-06T14:26:37.204Z,99773.16
2022-09-06T14:29:06.126Z,99770.56
2022-09-06T14:31:34.943Z,99763.59
2022-09-06T14:34:04.290Z,99756.44
2022-09-06T14:36:34.994Z,99764.25
2022-09-06T14:39:05.874Z,99759.66
2022-09-06T14:41:34.818Z,99757.75
2022-09-06T14:44:04.200Z,99746.16
2022-09-06T14:46:32.926Z,99747.91
2022-09-06T14:49:03.500Z,99751.47
2022-09-06T14:51:32.604Z,99749.84
2022-09-06T14:54:06.935Z,99745.56
2022-09-06T14:56:35.976Z,99739.38
2022-09-06T14:59:05.261Z,99742.88
2022-09-06T15:01:38.328Z,99738.44
2022-09-06T15:04:10.073Z,99736.69
2022-09-06T15:06:41.183Z,99735.75
2022-09-06T15:09:11.597Z,99731.25
2022-09-06T15:11:42.646Z,99725.88
2022-09-06T15:14:16.743Z,99724.09
2022-09-06T15:16:45.815Z,99723.25
2022-09-06T15:19:14.666Z,99719.00
2022-09-06T15:21:43.801Z,99712.91
2022-09-06T15:24:14.203Z,99713.03
2022-09-06T15:26:43.855Z,99707.78
2022-09-06T15:29:13.956Z,99707.78
2022-09-06T15:31:48.306Z,99703.44
2022-09-06T15:34:17.495Z,99705.28
2022-09-06T15:36:46.163Z,99699.09
2022-09-06T15:39:16.413Z,99702.69
2022-09-06T15:41:45.614Z,99697.41
2022-09-06T15:44:17.020Z,99692.06
2022-09-06T15:46:49.978Z,99694.78
2022-09-06T15:49:27.033Z,99689.56
2022-09-06T15:51:58.355Z,99695.91
2022-09-06T15:54:43.204Z,99691.56
2022-09-06T15:57:12.281Z,99688.97
2022-09-06T15:59:41.968Z,99688.06
2022-09-06T16:02:11.814Z,99683.66
2022-09-06T16:04:40.874Z,99683.69
2022-09-06T16:07:10.059Z,99686.47
2022-09-06T16:09:40.457Z,99683.97
2022-09-06T16:12:09.767Z,99672.50
2022-09-06T16:14:39.239Z,99670.72
2022-09-06T16:17:07.955Z,99663.59
2022-09-06T16:19:36.850Z,99672.47
2022-09-06T16:22:05.593Z,99671.66
2022-09-06T16:24:34.604Z,99672.59
2022-09-06T16:27:04.947Z,99672.59
2022-09-06T16:29:33.634Z,99667.41
2022-09-06T16:32:02.245Z,99669.25
2022-09-06T16:34:31.026Z,99671.91
2022-09-06T16:37:00.159Z,99667.59
2022-09-06T16:39:30.269Z,99668.56
2022-09-06T16:41:58.880Z,99666.81
2022-09-06T16:44:29.641Z,99668.56
2022-09-06T16:47:01.037Z,99667.72
2022-09-06T16:49:29.699Z,99666.94
2022-09-06T16:51:58.598Z,99669.66
2022-09-06T16:54:27.377Z,99664.38
2022-09-06T16:56:57.009Z,99666.19
2022-09-06T16:59:26.433Z,99665.22
2022-09-06T17:01:56.941Z,99669.75
2022-09-06T17:04:25.629Z,99674.25
2022-09-06T17:06:54.219Z,99669.03
2022-09-06T17:09:22.814Z,99670.88
2022-09-06T17:11:51.430Z,99673.53
2022-09-06T17:14:20.531Z,99674.44
2022-09-06T17:17:07.085Z,99667.44
2022-09-06T17:19:39.436Z,99678.19
2022-09-06T17:22:10.095Z,99672.06
2022-09-06T17:24:39.426Z,99674.75
2022-09-06T17:27:08.901Z,99672.13
2022-09-06T17:29:37.504Z,99666.03
2022-09-06T17:32:10.039Z,99664.38
2022-09-06T17:34:41.020Z,99663.59
2022-09-06T17:37:09.644Z,99661.97
2022-09-06T17:39:38.726Z,99668.25
2022-09-06T17:42:08.694Z,99670.09
2022-09-06T17:44:37.529Z,99670.19
2022-09-06T17:47:14.439Z,99659.59
2022-09-06T17:49:44.659Z,99666.75
2022-09-06T17:52:13.969Z,99663.25
2022-09-06T17:54:42.950Z,99668.69
2022-09-06T17:57:11.728Z,99666.94
2022-09-06T17:59:40.429Z,99671.50
2022-09-06T18:02:09.326Z,99662.69
2022-09-06T18:04:38.307Z,99674.28
2022-09-06T18:07:08.588Z,99665.47
2022-09-06T18:09:37.846Z,99665.56
2022-09-06T18:12:06.868Z,99669.16
2022-09-06T18:14:35.700Z,99667.41
2022-09-06T18:17:04.639Z,99666.56
2022-09-06T18:19:33.317Z,99667.53
2022-09-06T18:22:01.942Z,99673.84
2022-09-06T18:24:32.056Z,99671.25
2022-09-06T18:27:02.824Z,99666.00
2022-09-06T18:29:31.713Z,99665.19
2022-09-06T18:32:00.459Z,99659.06
2022-09-06T18:34:29.176Z,99675.03
2022-09-06T18:36:58.792Z,99660.88
2022-09-06T18:39:27.738Z,99668.00
2022-09-06T18:42:07.145Z,99662.66
2022-09-06T18:44:36.775Z,99667.19
2022-09-06T18:47:07.896Z,99664.53
2022-09-06T18:49:41.892Z,99659.25
2022-09-06T18:52:12.556Z,99662.94
2022-09-06T18:54:41.440Z,99658.56
2022-09-06T18:57:11.508Z,99660.44
2022-09-06T18:59:40.124Z,99659.63
2022-09-06T19:02:08.870Z,99659.63
2022-09-06T19:04:37.682Z,99656.94
2022-09-06T19:07:07.856Z,99661.38
2022-09-06T19:09:36.631Z,99658.69
2022-09-06T19:12:05.978Z,99660.50
2022-09-06T19:14:36.339Z,99656.91
2022-09-06T19:17:05.730Z,99655.16
2022-09-06T19:19:34.447Z,99659.63
2022-09-06T19:22:03.058Z,99642.81
2022-09-06T19:24:32.176Z,99645.50
2022-09-06T19:27:00.794Z,99640.19
2022-09-06T19:29:29.711Z,99642.88
2022-09-06T19:32:00.055Z,99641.09
2022-09-06T19:34:29.189Z,99639.38
2022-09-06T19:36:57.792Z,99631.47
2022-09-06T19:39:34.769Z,99630.59
2022-09-06T19:42:06.381Z,99621.75
2022-09-06T19:44:35.034Z,99616.47
2022-09-06T19:47:05.368Z,99621.78
2022-09-06T19:49:34.060Z,99616.56
2022-09-06T19:52:09.481Z,99606.94
2022-09-06T19:54:38.460Z,99603.44
2022-09-06T19:57:07.279Z,99598.13
2022-09-06T19:59:36.937Z,99593.75
2022-09-06T20:02:07.066Z,99591.16
2022-09-06T20:04:35.964Z,99584.13
2022-09-06T20:07:04.620Z,99585.91
2022-09-06T20:09:33.396Z,99594.78
2022-09-06T20:12:02.030Z,99592.19
2022-09-06T20:14:31.267Z,99599.38
2022-09-06T20:17:29.259Z,99599.41
2022-09-06T20:19:50.830Z,99603.91
2022-09-06T20:22:19.411Z,99604.03
2022-09-06T20:24:48.053Z,99609.41
2022-09-06T20:27:16.768Z,99613.97
2022-09-06T20:29:45.727Z,99596.38
2022-09-06T20:32:14.548Z,99598.19
2022-09-06T20:34:43.513Z,99605.41
2022-09-06T20:37:13.514Z,99604.56
2022-09-06T20:39:42.982Z,99602.03
2022-09-06T20:42:11.810Z,99608.28
2022-09-06T20:44:40.415Z,99606.59
2022-09-06T20:47:09.243Z,99603.97
2022-09-06T20:49:37.958Z,99608.41
2022-09-06T20:52:06.905Z,99612.84
2022-09-06T20:54:37.021Z,99608.50
2022-09-06T20:57:05.809Z,99611.22
2022-09-06T20:59:34.518Z,99618.31
2022-09-06T21:02:03.200Z,99608.66
2022-09-06T21:04:32.497Z,99609.56
2022-09-06T21:07:01.937Z,99614.09
2022-09-06T21:09:31.032Z,99607.03
2022-09-06T21:12:01.021Z,99617.69
2022-09-06T21:14:29.645Z,99614.25
2022-09-06T21:16:58.362Z,99614.25
2022-09-06T21:19:27.184Z,99619.66
2022-09-06T21:21:55.782Z,99620.59
2022-09-06T21:24:24.478Z,99620.63
2022-09-06T21:26:53.197Z,99614.53
2022-09-06T21:29:23.399Z,99616.34
2022-09-06T21:31:52.116Z,99624.41
2022-09-06T21:34:20.846Z,99611.16
2022-09-06T21:36:49.465Z,99620.97
2022-09-06T21:39:18.169Z,99630.78
2022-09-06T21:41:47.024Z,99633.50
2022-09-06T21:44:15.563Z,99629.13
2022-09-06T21:46:45.657Z,99634.47
2022-09-06T21:49:15.414Z,99635.44
2022-09-06T21:51:44.252Z,99625.84
2022-09-06T21:54:12.964Z,99627.78
2022-09-06T21:56:41.741Z,99637.59
2022-09-06T21:59:10.916Z,99641.25
2022-09-06T22:01:43.929Z,99643.97
2022-09-06T22:04:15.485Z,99652.03
2022-09-06T22:06:44.366Z,99647.63
2022-09-06T22:09:13.839Z,99644.16
2022-09-06T22:11:44.808Z,99635.31
2022-09-06T22:14:16.141Z,99619.41
2022-09-06T22:16:48.906Z,99615.84
2022-09-06T22:19:19.613Z,99611.44
2022-09-06T22:21:48.423Z,99598.19
2022-09-06T22:24:17.916Z,99586.75
2022-09-06T22:26:47.466Z,99570.84
2022-09-06T22:29:16.637Z,99557.59
2022-09-06T22:31:46.127Z,99534.59
2022-09-06T22:34:14.776Z,99524.88
2022-09-06T22:36:44.844Z,99505.44
2022-09-06T22:39:13.831Z,99497.50
2022-09-06T22:41:42.505Z,99492.19
2022-09-06T22:44:11.125Z,99494.91
2022-09-06T22:46:39.914Z,99503.75
2022-09-06T22:49:09.016Z,99502.00
2022-09-06T22:51:37.711Z,99492.31
2022-09-06T22:54:07.782Z,99493.19
2022-09-06T22:56:36.798Z,99494.16
2022-09-06T22:59:06.200Z,99483.56
2022-09-06T23:01:39.295Z,99468.56
2022-09-06T23:04:08.533Z,99464.22
2022-09-06T23:06:38.132Z,99461.59
2022-09-06T23:09:08.560Z,99450.06
2022-09-06T23:11:37.475Z,99438.59
2022-09-06T23:14:06.124Z,99443.00
2022-09-06T23:16:34.844Z,99444.84
2022-09-06T23:19:03.624Z,99436.03
2022-09-06T23:21:32.452Z,99430.75
2022-09-06T23:24:01.085Z,99451.13
2022-09-06T23:26:33.540Z,99464.38
2022-09-06T23:29:02.229Z,99477.72
2022-09-06T23:31:32.750Z,99491.00
2022-09-06T23:34:02.810Z,99494.56
2022-09-06T23:36:33.026Z,99491.06
2022-09-06T23:39:02.586Z,99472.56
2022-09-06T23:41:32.803Z,99492.91
2022-09-06T23:44:01.585Z,99482.34
2022-09-06T23:46:31.247Z,99495.66
2022-09-06T23:48:59.890Z,99518.66
2022-09-06T23:51:28.507Z,99562.00
2022-09-06T23:53:58.315Z,99663.72
2022-09-06T23:56:27.138Z,99669.16
2022-09-06T23:58:57.132Z,99703.94
